Peru, IL

2:03 AM CDT on September 22, 2017 (GMT -0500)
Illinois Valley Regional-Duncan

Weather History for KVYS - October, 2013

Change the Weather History Date:

Saturday, October 26, 2013

  Actual Average Record
Temperature  
Mean Temperature 44 °F -  
Max Temperature 54 °F 60 °F 83 °F (1963)
Min Temperature 35 °F 37 °F 23 °F (1979)
Degree Days  
Heating Degree Days 20    
Moisture  
Dew Point 30 °F    
Average Humidity 55    
Maximum Humidity 77    
Minimum Humidity 42    
Precipitation  
Precipitation 0.00 in - - ()
Sea Level Pressure  
Sea Level Pressure 29.99 in    
Wind  
Wind Speed 16 mph (West)    
Max Wind Speed 24 mph    
Max Gust Speed 30 mph    
Visibility 10 miles    
Events      
Averages and records for this station are not official NWS values.
T = Trace of Precipitation, MM = Missing Value Source: NWS Daily Summary

Daily Weather History Graph

Daily Weather History Graph

Search for Another Location

Airport or City:

Trip Planner

Search our weather history database for the weather conditions in past years. The results will help you decide how hot, cold, wet, or windy it might be!

Date:

Astronomy

Oct. 26, 2013 Rise Set
Actual Time 7:21 AM CDT 5:59 PM CDT
Civil Twilight 6:52 AM CDT 6:27 PM CDT
Nautical Twilight 6:20 AM CDT 6:59 PM CDT
Astronomical Twilight 5:48 AM CDT 7:31 PM CDT
Moon No Moon Rise 1:37 PM CDT (10/26)
Length of Visible Light 11h 34m
Length of Day
10h 37m
Waning Gibbous, 53% of the Moon is Illuminated
Oct 26
Waning Gibbous
Oct 26
Last Quarter
Nov 3
New
Nov 9
First Quarter
Nov 17
Full

Hourly Weather History & Observations

Time (CDT) Temp. Windchill Dew Point Humidity Pressure Visibility Wind Dir Wind Speed Gust Speed Precip Events Conditions
12:15 AM 43.7 °F 36.3 °F 27.5 °F 53% 30.07 in 10.0 mi SW 16.1 mph - N/A   Clear
12:35 AM 43.7 °F 36.6 °F 27.7 °F 53% 30.06 in 10.0 mi SW 15.0 mph 21.9 mph N/A   Clear
12:55 AM 43.2 °F 35.9 °F 27.9 °F 55% 30.06 in 10.0 mi SW 15.0 mph - N/A   Clear
1:15 AM 42.8 °F 36.2 °F 27.5 °F 55% 30.05 in 10.0 mi SW 12.7 mph 18.4 mph N/A   Clear
1:35 AM 43.5 °F 36.7 °F 27.9 °F 54% 30.05 in 10.0 mi SW 13.8 mph - N/A   Mostly Cloudy
1:55 AM 43.9 °F 36.5 °F 27.9 °F 53% 30.04 in 10.0 mi SW 16.1 mph - N/A   Overcast
2:15 AM 44.4 °F 36.6 °F 27.9 °F 52% 30.03 in 10.0 mi SW 18.4 mph 25.3 mph N/A   Overcast
2:35 AM 44.6 °F 36.9 °F 27.7 °F 52% 30.02 in 10.0 mi SW 18.4 mph 25.3 mph N/A   Overcast
2:55 AM 45.3 °F 37.6 °F 27.5 °F 50% 30.00 in 10.0 mi SW 19.6 mph 27.6 mph N/A   Overcast
3:15 AM 45.9 °F 38.3 °F 27.5 °F 49% 29.98 in 10.0 mi SW 19.6 mph 28.8 mph N/A   Overcast
3:35 AM 46.2 °F 38.5 °F 27.5 °F 48% 29.96 in 10.0 mi SW 20.7 mph 28.8 mph N/A   Overcast
3:55 AM 45.9 °F 37.8 °F 27.7 °F 49% 29.95 in 10.0 mi SW 21.9 mph - N/A   Overcast
4:15 AM 45.0 °F 36.2 °F 27.9 °F 51% 29.95 in 10.0 mi SW 24.2 mph 28.8 mph N/A   Scattered Clouds
4:35 AM 45.1 °F 36.9 °F 28.2 °F 52% 29.94 in 10.0 mi SW 21.9 mph 27.6 mph N/A   Clear
4:55 AM 44.6 °F 36.6 °F 28.4 °F 53% 29.94 in 10.0 mi SW 19.6 mph 29.9 mph N/A   Clear
5:15 AM 45.0 °F 37.1 °F 28.8 °F 53% 29.93 in 10.0 mi SW 19.6 mph 29.9 mph N/A   Scattered Clouds
5:35 AM 44.6 °F 37.2 °F 29.3 °F 55% 29.92 in 10.0 mi SW 17.3 mph - N/A   Mostly Cloudy
5:55 AM 44.1 °F 36.2 °F 29.3 °F 56% 29.92 in 10.0 mi SW 18.4 mph 23.0 mph N/A   Scattered Clouds
6:15 AM 44.6 °F 36.6 °F 30.0 °F 57% 29.92 in 10.0 mi WSW 19.6 mph 26.5 mph N/A   Clear
6:35 AM 45.0 °F 37.1 °F 30.2 °F 56% 29.92 in 10.0 mi WSW 19.6 mph 27.6 mph N/A   Clear
6:55 AM 44.8 °F 37.7 °F 30.7 °F 58% 29.92 in 10.0 mi WSW 16.1 mph 27.6 mph N/A   Clear
7:15 AM 45.0 °F 37.1 °F 31.1 °F 58% 29.91 in 10.0 mi WSW 19.6 mph 24.2 mph N/A   Scattered Clouds
7:35 AM 45.0 °F 37.6 °F 31.5 °F 59% 29.91 in 10.0 mi WSW 17.3 mph 23.0 mph N/A   Overcast
7:55 AM 45.1 °F 37.3 °F 32.0 °F 60% 29.91 in 10.0 mi WSW 19.6 mph 24.2 mph N/A   Overcast
8:15 AM 45.1 °F 38.4 °F 32.0 °F 60% 29.91 in 10.0 mi WSW 15.0 mph 21.9 mph N/A   Overcast
8:35 AM 45.0 °F 38.9 °F 32.0 °F 60% 29.91 in 10.0 mi WSW 12.7 mph 21.9 mph N/A   Mostly Cloudy
8:55 AM 45.9 °F 39.4 °F 32.9 °F 61% 29.92 in 10.0 mi WSW 15.0 mph 19.6 mph N/A   Mostly Cloudy
9:15 AM 47.1 °F - 33.4 °F 59% 29.91 in 10.0 mi West 17.3 mph 21.9 mph N/A   Clear
9:35 AM 48.4 °F - 33.8 °F 57% 29.91 in 10.0 mi West 18.4 mph 26.5 mph N/A   Clear
9:55 AM 49.8 °F - 34.5 °F 56% 29.91 in 10.0 mi West 15.0 mph 23.0 mph N/A   Clear
10:15 AM 50.5 °F - 35.2 °F 56% 29.91 in 10.0 mi West 17.3 mph 24.2 mph N/A   Clear
10:35 AM 50.2 °F - 35.2 °F 57% 29.91 in 10.0 mi West 13.8 mph 18.4 mph N/A   Clear
10:55 AM 52.2 °F - 35.8 °F 54% 29.92 in 10.0 mi WNW 17.3 mph 25.3 mph N/A   Clear
11:15 AM 52.5 °F - 35.8 °F 53% 29.93 in 10.0 mi WNW 19.6 mph 24.2 mph N/A   Clear
11:35 AM 53.1 °F - 35.1 °F 50% 29.93 in 10.0 mi West 13.8 mph 24.2 mph N/A   Clear
11:55 AM 53.4 °F - 34.5 °F 49% 29.93 in 10.0 mi WNW 16.1 mph 24.2 mph N/A   Clear
12:15 PM 52.9 °F - 32.4 °F 46% 29.93 in 10.0 mi WNW 18.4 mph - N/A   Clear
12:35 PM 53.1 °F - 32.9 °F 46% 29.94 in 10.0 mi WNW 18.4 mph 24.2 mph N/A   Clear
12:55 PM 52.5 °F - 32.2 °F 46% 29.94 in 10.0 mi WNW 20.7 mph 28.8 mph N/A   Scattered Clouds
1:15 PM 52.9 °F - 31.8 °F 45% 29.94 in 10.0 mi WNW 17.3 mph 26.5 mph N/A   Scattered Clouds
1:35 PM 52.9 °F - 31.6 °F 44% 29.95 in 10.0 mi NW 23.0 mph 27.6 mph N/A   Scattered Clouds
1:55 PM 54.3 °F - 33.3 °F 45% 29.96 in 10.0 mi NW 21.9 mph 26.5 mph N/A   Scattered Clouds
2:15 PM 52.9 °F - 32.4 °F 46% 29.96 in 10.0 mi NW 20.7 mph 26.5 mph N/A   Mostly Cloudy
2:35 PM 52.9 °F - 31.8 °F 45% 29.97 in 10.0 mi NW 19.6 mph 25.3 mph N/A   Mostly Cloudy
2:55 PM 52.5 °F - 32.0 °F 46% 29.98 in 10.0 mi NW 12.7 mph 28.8 mph N/A   Mostly Cloudy
3:15 PM 52.7 °F - 31.6 °F 45% 29.98 in 10.0 mi NNW 17.3 mph 21.9 mph N/A   Overcast
3:35 PM 54.5 °F - 32.4 °F 43% 29.99 in 10.0 mi NNW 17.3 mph 23.0 mph N/A   Overcast
3:55 PM 53.6 °F - 31.1 °F 42% 30.00 in 10.0 mi NNW 19.6 mph 28.8 mph N/A   Overcast
4:15 PM 52.9 °F - 30.4 °F 42% 30.01 in 10.0 mi NW 20.7 mph 27.6 mph N/A   Scattered Clouds
4:35 PM 53.2 °F - 30.6 °F 42% 30.01 in 10.0 mi NNW 18.4 mph - N/A   Scattered Clouds
4:55 PM 52.9 °F - 30.6 °F 43% 30.02 in 10.0 mi NW 17.3 mph 23.0 mph N/A   Scattered Clouds
5:15 PM 52.0 °F - 31.5 °F 46% 30.03 in 10.0 mi NW 13.8 mph 19.6 mph N/A   Scattered Clouds
5:35 PM 50.9 °F - 31.5 °F 47% 30.03 in 10.0 mi NW 11.5 mph - N/A   Scattered Clouds
5:55 PM 49.5 °F - 31.6 °F 50% 30.04 in 10.0 mi NW 10.4 mph - N/A   Mostly Cloudy
6:15 PM 47.5 °F - 30.4 °F 52% 30.05 in 10.0 mi NNW 5.8 mph - N/A   Mostly Cloudy
6:35 PM 45.0 °F 41.2 °F 30.2 °F 56% 30.05 in 10.0 mi NW 6.9 mph - N/A   Scattered Clouds
6:55 PM 44.6 °F 40.7 °F 29.8 °F 56% 30.06 in 10.0 mi NNW 6.9 mph - N/A   Clear
7:15 PM 40.8 °F 36.9 °F 29.7 °F 64% 30.07 in 10.0 mi WNW 5.8 mph - N/A   Clear
7:35 PM 40.6 °F 35.4 °F 29.8 °F 65% 30.08 in 10.0 mi NW 8.1 mph - N/A   Clear
7:55 PM 39.9 °F 34.5 °F 29.3 °F 66% 30.08 in 10.0 mi NW 8.1 mph - N/A   Clear
8:15 PM 37.8 °F 31.8 °F 29.5 °F 72% 30.08 in 10.0 mi NW 8.1 mph - N/A   Clear
8:35 PM 38.3 °F 34.8 °F 29.3 °F 70% 30.08 in 10.0 mi WNW 4.6 mph - N/A   Clear
8:55 PM 37.8 °F 32.5 °F 28.9 °F 71% 30.09 in 10.0 mi NW 6.9 mph - N/A   Clear
9:15 PM 37.6 °F 32.3 °F 28.9 °F 71% 30.10 in 10.0 mi NW 6.9 mph - N/A   Clear
9:35 PM 37.6 °F 33.1 °F 28.9 °F 71% 30.10 in 10.0 mi NNW 5.8 mph - N/A   Clear
9:55 PM 37.4 °F 33.8 °F 28.4 °F 70% 30.11 in 10.0 mi NW 4.6 mph - N/A   Clear
10:15 PM 38.3 °F 34.8 °F 28.4 °F 68% 30.11 in 10.0 mi WNW 4.6 mph - N/A   Clear
10:35 PM 36.9 °F 33.1 °F 28.8 °F 72% 30.11 in 10.0 mi West 4.6 mph - N/A   Clear
10:55 PM 36.1 °F 32.3 °F 28.2 °F 73% 30.10 in 10.0 mi West 4.6 mph - N/A   Clear
11:15 PM 36.3 °F 30.8 °F 28.4 °F 73% 30.10 in 10.0 mi West 6.9 mph - N/A   Clear
11:35 PM 35.1 °F 31.0 °F 28.6 °F 77% 30.10 in 10.0 mi West 4.6 mph - N/A   Clear
11:55 PM 35.6 °F 30.7 °F 28.6 °F 76% 30.09 in 10.0 mi West 5.8 mph - N/A   Clear